sensor_id;sensor_type;location;lat;lon;timestamp;P1;durP1;ratioP1;P2;durP2;ratioP2
60885;SDS011;46736;41.654;-8.438;2023-07-29T00:01:01;0.30;;;0.30;;
60885;SDS011;46736;41.654;-8.438;2023-07-29T00:03:01;0.30;;;0.30;;
60885;SDS011;46736;41.654;-8.438;2023-07-29T00:05:02;0.30;;;0.30;;
60885;SDS011;46736;41.654;-8.438;2023-07-29T00:07:03;0.30;;;0.30;;
60885;SDS011;46736;41.654;-8.438;2023-07-29T00:09:03;0.30;;;0.30;;
60885;SDS011;46736;41.654;-8.438;2023-07-29T00:11:04;0.20;;;0.20;;
60885;SDS011;46736;41.654;-8.438;2023-07-29T00:13:04;0.30;;;0.30;;
60885;SDS011;46736;41.654;-8.438;2023-07-29T00:15:05;0.20;;;0.20;;
60885;SDS011;46736;41.654;-8.438;2023-07-29T00:17:06;0.30;;;0.30;;
60885;SDS011;46736;41.654;-8.438;2023-07-29T00:19:07;0.30;;;0.30;;
60885;SDS011;46736;41.654;-8.438;2023-07-29T00:21:07;0.28;;;0.28;;
60885;SDS011;46736;41.654;-8.438;2023-07-29T00:23:08;0.20;;;0.20;;
60885;SDS011;46736;41.654;-8.438;2023-07-29T00:25:08;0.30;;;0.30;;
60885;SDS011;46736;41.654;-8.438;2023-07-29T00:27:09;0.30;;;0.30;;
60885;SDS011;46736;41.654;-8.438;2023-07-29T00:29:09;0.25;;;0.25;;
60885;SDS011;46736;41.654;-8.438;2023-07-29T00:31:10;0.30;;;0.30;;
60885;SDS011;46736;41.654;-8.438;2023-07-29T00:33:10;0.30;;;0.30;;
60885;SDS011;46736;41.654;-8.438;2023-07-29T00:35:12;0.20;;;0.20;;
60885;SDS011;46736;41.654;-8.438;2023-07-29T00:37:13;0.30;;;0.30;;
60885;SDS011;46736;41.654;-8.438;2023-07-29T00:39:13;0.25;;;0.25;;
60885;SDS011;46736;41.654;-8.438;2023-07-29T00:41:14;0.20;;;0.20;;
60885;SDS011;46736;41.654;-8.438;2023-07-29T00:43:15;0.20;;;0.20;;
60885;SDS011;46736;41.654;-8.438;2023-07-29T00:45:16;0.30;;;0.30;;
60885;SDS011;46736;41.654;-8.438;2023-07-29T00:47:18;0.28;;;0.28;;
60885;SDS011;46736;41.654;-8.438;2023-07-29T00:49:19;0.20;;;0.20;;
60885;SDS011;46736;41.654;-8.438;2023-07-29T00:51:20;0.30;;;0.30;;
60885;SDS011;46736;41.654;-8.438;2023-07-29T00:53:21;0.30;;;0.30;;
60885;SDS011;46736;41.654;-8.438;2023-07-29T00:55:24;0.30;;;0.30;;
60885;SDS011;46736;41.654;-8.438;2023-07-29T00:57:24;0.30;;;0.30;;
60885;SDS011;46736;41.654;-8.438;2023-07-29T00:59:26;0.30;;;0.30;;
60885;SDS011;46736;41.654;-8.438;2023-07-29T01:01:28;0.30;;;0.30;;
60885;SDS011;46736;41.654;-8.438;2023-07-29T01:03:29;0.30;;;0.30;;
60885;SDS011;46736;41.654;-8.438;2023-07-29T01:05:32;0.30;;;0.30;;
60885;SDS011;46736;41.654;-8.438;2023-07-29T01:12:01;0.30;;;0.30;;
60885;SDS011;46736;41.654;-8.438;2023-07-29T01:14:15;0.30;;;0.30;;
60885;SDS011;46736;41.654;-8.438;2023-07-29T01:16:21;0.30;;;0.30;;
60885;SDS011;46736;41.654;-8.438;2023-07-29T01:18:26;0.30;;;0.30;;
60885;SDS011;46736;41.654;-8.438;2023-07-29T01:20:27;0.30;;;0.30;;
60885;SDS011;46736;41.654;-8.438;2023-07-29T01:22:29;0.30;;;0.30;;
60885;SDS011;46736;41.654;-8.438;2023-07-29T01:24:31;0.20;;;0.20;;
60885;SDS011;46736;41.654;-8.438;2023-07-29T01:26:31;0.30;;;0.30;;
60885;SDS011;46736;41.654;-8.438;2023-07-29T01:28:33;0.30;;;0.30;;
60885;SDS011;46736;41.654;-8.438;2023-07-29T01:30:37;0.30;;;0.30;;
60885;SDS011;46736;41.654;-8.438;2023-07-29T01:34:41;0.30;;;0.30;;
60885;SDS011;46736;41.654;-8.438;2023-07-29T01:36:42;0.25;;;0.25;;
60885;SDS011;46736;41.654;-8.438;2023-07-29T01:38:43;0.30;;;0.30;;
60885;SDS011;46736;41.654;-8.438;2023-07-29T01:40:44;0.20;;;0.20;;
60885;SDS011;46736;41.654;-8.438;2023-07-29T01:42:45;0.30;;;0.30;;
60885;SDS011;46736;41.654;-8.438;2023-07-29T01:44:46;0.25;;;0.25;;
60885;SDS011;46736;41.654;-8.438;2023-07-29T01:46:47;0.30;;;0.30;;
60885;SDS011;46736;41.654;-8.438;2023-07-29T01:48:47;0.30;;;0.30;;
60885;SDS011;46736;41.654;-8.438;2023-07-29T01:50:48;0.30;;;0.30;;
60885;SDS011;46736;41.654;-8.438;2023-07-29T01:52:48;0.28;;;0.28;;
60885;SDS011;46736;41.654;-8.438;2023-07-29T01:54:49;0.30;;;0.30;;
60885;SDS011;46736;41.654;-8.438;2023-07-29T01:56:49;0.28;;;0.28;;
60885;SDS011;46736;41.654;-8.438;2023-07-29T01:58:51;0.20;;;0.20;;
60885;SDS011;46736;41.654;-8.438;2023-07-29T02:00:52;0.30;;;0.30;;
60885;SDS011;46736;41.654;-8.438;2023-07-29T02:02:52;0.30;;;0.30;;
60885;SDS011;46736;41.654;-8.438;2023-07-29T02:04:53;0.30;;;0.30;;
60885;SDS011;46736;41.654;-8.438;2023-07-29T02:06:54;0.30;;;0.30;;
60885;SDS011;46736;41.654;-8.438;2023-07-29T02:08:55;0.20;;;0.20;;
60885;SDS011;46736;41.654;-8.438;2023-07-29T02:10:55;0.25;;;0.25;;
60885;SDS011;46736;41.654;-8.438;2023-07-29T02:12:56;0.30;;;0.30;;
60885;SDS011;46736;41.654;-8.438;2023-07-29T02:14:57;0.30;;;0.30;;
60885;SDS011;46736;41.654;-8.438;2023-07-29T02:16:57;0.30;;;0.30;;
60885;SDS011;46736;41.654;-8.438;2023-07-29T02:18:58;0.30;;;0.30;;
60885;SDS011;46736;41.654;-8.438;2023-07-29T02:20:58;0.30;;;0.30;;
60885;SDS011;46736;41.654;-8.438;2023-07-29T02:22:59;0.30;;;0.30;;
60885;SDS011;46736;41.654;-8.438;2023-07-29T02:25:00;0.30;;;0.30;;
60885;SDS011;46736;41.654;-8.438;2023-07-29T02:27:01;0.30;;;0.30;;
60885;SDS011;46736;41.654;-8.438;2023-07-29T02:29:02;0.30;;;0.30;;
60885;SDS011;46736;41.654;-8.438;2023-07-29T02:33:19;0.22;;;0.22;;
60885;SDS011;46736;41.654;-8.438;2023-07-29T02:35:20;0.30;;;0.30;;
60885;SDS011;46736;41.654;-8.438;2023-07-29T02:37:21;0.30;;;0.30;;
60885;SDS011;46736;41.654;-8.438;2023-07-29T02:39:21;0.30;;;0.30;;
60885;SDS011;46736;41.654;-8.438;2023-07-29T02:41:22;0.20;;;0.20;;
60885;SDS011;46736;41.654;-8.438;2023-07-29T02:43:22;0.30;;;0.30;;
60885;SDS011;46736;41.654;-8.438;2023-07-29T02:45:23;0.30;;;0.30;;
60885;SDS011;46736;41.654;-8.438;2023-07-29T02:47:23;0.30;;;0.30;;
60885;SDS011;46736;41.654;-8.438;2023-07-29T02:49:24;0.30;;;0.30;;
60885;SDS011;46736;41.654;-8.438;2023-07-29T02:51:25;0.30;;;0.30;;
60885;SDS011;46736;41.654;-8.438;2023-07-29T02:53:25;0.30;;;0.30;;
60885;SDS011;46736;41.654;-8.438;2023-07-29T02:55:26;0.22;;;0.22;;
60885;SDS011;46736;41.654;-8.438;2023-07-29T02:57:26;0.30;;;0.30;;
60885;SDS011;46736;41.654;-8.438;2023-07-29T02:59:27;0.20;;;0.20;;
60885;SDS011;46736;41.654;-8.438;2023-07-29T03:01:28;0.30;;;0.30;;
60885;SDS011;46736;41.654;-8.438;2023-07-29T03:03:28;0.30;;;0.30;;
60885;SDS011;46736;41.654;-8.438;2023-07-29T03:05:29;0.28;;;0.28;;
60885;SDS011;46736;41.654;-8.438;2023-07-29T03:07:30;0.30;;;0.30;;
60885;SDS011;46736;41.654;-8.438;2023-07-29T03:09:30;0.30;;;0.30;;
60885;SDS011;46736;41.654;-8.438;2023-07-29T03:11:31;0.22;;;0.22;;
60885;SDS011;46736;41.654;-8.438;2023-07-29T03:13:32;0.30;;;0.30;;
60885;SDS011;46736;41.654;-8.438;2023-07-29T03:15:32;0.30;;;0.30;;
60885;SDS011;46736;41.654;-8.438;2023-07-29T03:17:34;0.30;;;0.30;;
60885;SDS011;46736;41.654;-8.438;2023-07-29T03:19:35;0.30;;;0.30;;
60885;SDS011;46736;41.654;-8.438;2023-07-29T03:21:35;0.30;;;0.30;;
60885;SDS011;46736;41.654;-8.438;2023-07-29T03:23:36;0.30;;;0.30;;
60885;SDS011;46736;41.654;-8.438;2023-07-29T03:25:37;0.30;;;0.30;;
60885;SDS011;46736;41.654;-8.438;2023-07-29T03:27:37;0.30;;;0.30;;
60885;SDS011;46736;41.654;-8.438;2023-07-29T03:29:38;0.30;;;0.30;;
60885;SDS011;46736;41.654;-8.438;2023-07-29T03:31:38;0.30;;;0.30;;
60885;SDS011;46736;41.654;-8.438;2023-07-29T03:33:39;0.30;;;0.30;;
60885;SDS011;46736;41.654;-8.438;2023-07-29T03:35:39;0.30;;;0.30;;
60885;SDS011;46736;41.654;-8.438;2023-07-29T03:37:40;0.30;;;0.30;;
60885;SDS011;46736;41.654;-8.438;2023-07-29T03:39:41;0.30;;;0.30;;
60885;SDS011;46736;41.654;-8.438;2023-07-29T03:41:41;0.20;;;0.20;;
60885;SDS011;46736;41.654;-8.438;2023-07-29T03:43:42;0.30;;;0.30;;
60885;SDS011;46736;41.654;-8.438;2023-07-29T03:45:42;0.30;;;0.30;;
60885;SDS011;46736;41.654;-8.438;2023-07-29T03:47:43;0.30;;;0.30;;
60885;SDS011;46736;41.654;-8.438;2023-07-29T03:49:43;0.30;;;0.30;;
60885;SDS011;46736;41.654;-8.438;2023-07-29T03:51:45;0.30;;;0.30;;
60885;SDS011;46736;41.654;-8.438;2023-07-29T03:53:45;0.20;;;0.20;;
60885;SDS011;46736;41.654;-8.438;2023-07-29T03:55:46;0.20;;;0.20;;
60885;SDS011;46736;41.654;-8.438;2023-07-29T03:57:47;0.20;;;0.20;;
60885;SDS011;46736;41.654;-8.438;2023-07-29T03:59:47;0.30;;;0.30;;
60885;SDS011;46736;41.654;-8.438;2023-07-29T04:01:48;0.30;;;0.30;;
60885;SDS011;46736;41.654;-8.438;2023-07-29T04:03:48;0.30;;;0.30;;
60885;SDS011;46736;41.654;-8.438;2023-07-29T04:05:52;0.22;;;0.22;;
60885;SDS011;46736;41.654;-8.438;2023-07-29T04:07:53;0.30;;;0.30;;
60885;SDS011;46736;41.654;-8.438;2023-07-29T04:09:54;0.30;;;0.30;;
60885;SDS011;46736;41.654;-8.438;2023-07-29T04:11:54;0.30;;;0.30;;
60885;SDS011;46736;41.654;-8.438;2023-07-29T04:13:55;0.30;;;0.30;;
60885;SDS011;46736;41.654;-8.438;2023-07-29T04:15:56;0.30;;;0.30;;
60885;SDS011;46736;41.654;-8.438;2023-07-29T04:17:56;0.30;;;0.30;;
60885;SDS011;46736;41.654;-8.438;2023-07-29T04:19:57;0.30;;;0.30;;
60885;SDS011;46736;41.654;-8.438;2023-07-29T04:22:03;0.30;;;0.30;;
60885;SDS011;46736;41.654;-8.438;2023-07-29T04:24:03;0.30;;;0.30;;
60885;SDS011;46736;41.654;-8.438;2023-07-29T04:26:04;0.30;;;0.30;;
60885;SDS011;46736;41.654;-8.438;2023-07-29T04:28:05;0.30;;;0.30;;
60885;SDS011;46736;41.654;-8.438;2023-07-29T04:30:06;0.30;;;0.30;;
60885;SDS011;46736;41.654;-8.438;2023-07-29T04:32:06;0.30;;;0.30;;
60885;SDS011;46736;41.654;-8.438;2023-07-29T04:34:07;0.30;;;0.30;;
60885;SDS011;46736;41.654;-8.438;2023-07-29T04:36:07;0.30;;;0.30;;
60885;SDS011;46736;41.654;-8.438;2023-07-29T04:38:08;0.20;;;0.20;;
60885;SDS011;46736;41.654;-8.438;2023-07-29T04:40:09;0.30;;;0.30;;
60885;SDS011;46736;41.654;-8.438;2023-07-29T04:42:09;0.30;;;0.30;;
60885;SDS011;46736;41.654;-8.438;2023-07-29T04:44:10;0.30;;;0.30;;
60885;SDS011;46736;41.654;-8.438;2023-07-29T04:46:11;0.30;;;0.30;;
60885;SDS011;46736;41.654;-8.438;2023-07-29T04:48:11;0.30;;;0.30;;
60885;SDS011;46736;41.654;-8.438;2023-07-29T04:50:12;0.30;;;0.30;;
60885;SDS011;46736;41.654;-8.438;2023-07-29T04:52:13;0.30;;;0.30;;
60885;SDS011;46736;41.654;-8.438;2023-07-29T04:54:14;0.30;;;0.30;;
60885;SDS011;46736;41.654;-8.438;2023-07-29T04:56:15;0.30;;;0.30;;
60885;SDS011;46736;41.654;-8.438;2023-07-29T04:58:16;0.30;;;0.30;;
60885;SDS011;46736;41.654;-8.438;2023-07-29T05:00:17;0.25;;;0.25;;
60885;SDS011;46736;41.654;-8.438;2023-07-29T05:02:19;0.30;;;0.30;;
60885;SDS011;46736;41.654;-8.438;2023-07-29T05:04:21;0.20;;;0.20;;
60885;SDS011;46736;41.654;-8.438;2023-07-29T05:06:22;0.30;;;0.30;;
60885;SDS011;46736;41.654;-8.438;2023-07-29T05:08:22;0.30;;;0.30;;
60885;SDS011;46736;41.654;-8.438;2023-07-29T05:10:23;0.30;;;0.30;;
60885;SDS011;46736;41.654;-8.438;2023-07-29T05:12:24;0.30;;;0.30;;
60885;SDS011;46736;41.654;-8.438;2023-07-29T05:14:24;0.20;;;0.20;;
60885;SDS011;46736;41.654;-8.438;2023-07-29T05:16:25;0.30;;;0.30;;
60885;SDS011;46736;41.654;-8.438;2023-07-29T05:18:26;0.30;;;0.30;;
60885;SDS011;46736;41.654;-8.438;2023-07-29T05:20:26;0.30;;;0.30;;
60885;SDS011;46736;41.654;-8.438;2023-07-29T05:22:27;0.30;;;0.30;;
60885;SDS011;46736;41.654;-8.438;2023-07-29T05:24:27;0.30;;;0.30;;
60885;SDS011;46736;41.654;-8.438;2023-07-29T05:26:28;0.30;;;0.30;;
60885;SDS011;46736;41.654;-8.438;2023-07-29T05:28:28;0.30;;;0.30;;
60885;SDS011;46736;41.654;-8.438;2023-07-29T05:30:29;0.30;;;0.30;;
60885;SDS011;46736;41.654;-8.438;2023-07-29T05:32:31;0.20;;;0.20;;
60885;SDS011;46736;41.654;-8.438;2023-07-29T05:34:32;0.30;;;0.30;;
60885;SDS011;46736;41.654;-8.438;2023-07-29T05:36:33;0.22;;;0.22;;
60885;SDS011;46736;41.654;-8.438;2023-07-29T05:38:33;0.30;;;0.30;;
60885;SDS011;46736;41.654;-8.438;2023-07-29T05:40:34;0.30;;;0.30;;
60885;SDS011;46736;41.654;-8.438;2023-07-29T05:42:34;0.30;;;0.30;;
60885;SDS011;46736;41.654;-8.438;2023-07-29T05:44:35;0.30;;;0.30;;
60885;SDS011;46736;41.654;-8.438;2023-07-29T05:46:36;0.30;;;0.30;;
60885;SDS011;46736;41.654;-8.438;2023-07-29T05:48:36;0.30;;;0.30;;
60885;SDS011;46736;41.654;-8.438;2023-07-29T05:50:37;0.30;;;0.30;;
60885;SDS011;46736;41.654;-8.438;2023-07-29T05:52:37;0.30;;;0.30;;
60885;SDS011;46736;41.654;-8.438;2023-07-29T05:54:38;0.32;;;0.32;;
60885;SDS011;46736;41.654;-8.438;2023-07-29T05:56:39;0.30;;;0.30;;
60885;SDS011;46736;41.654;-8.438;2023-07-29T05:58:39;0.30;;;0.30;;
60885;SDS011;46736;41.654;-8.438;2023-07-29T06:00:41;0.30;;;0.30;;
60885;SDS011;46736;41.654;-8.438;2023-07-29T06:02:42;0.30;;;0.30;;
60885;SDS011;46736;41.654;-8.438;2023-07-29T06:04:47;0.30;;;0.30;;
60885;SDS011;46736;41.654;-8.438;2023-07-29T06:06:48;0.30;;;0.30;;
60885;SDS011;46736;41.654;-8.438;2023-07-29T06:08:48;0.30;;;0.30;;
60885;SDS011;46736;41.654;-8.438;2023-07-29T06:10:49;0.30;;;0.30;;
60885;SDS011;46736;41.654;-8.438;2023-07-29T06:12:49;0.30;;;0.30;;
60885;SDS011;46736;41.654;-8.438;2023-07-29T06:14:50;0.30;;;0.30;;
60885;SDS011;46736;41.654;-8.438;2023-07-29T06:16:50;0.30;;;0.30;;
60885;SDS011;46736;41.654;-8.438;2023-07-29T06:18:51;0.30;;;0.30;;
60885;SDS011;46736;41.654;-8.438;2023-07-29T06:20:53;0.25;;;0.25;;
60885;SDS011;46736;41.654;-8.438;2023-07-29T06:22:53;0.30;;;0.30;;
60885;SDS011;46736;41.654;-8.438;2023-07-29T06:24:54;0.30;;;0.30;;
60885;SDS011;46736;41.654;-8.438;2023-07-29T06:26:54;0.20;;;0.20;;
60885;SDS011;46736;41.654;-8.438;2023-07-29T06:28:55;0.30;;;0.30;;
60885;SDS011;46736;41.654;-8.438;2023-07-29T06:30:55;0.30;;;0.30;;
60885;SDS011;46736;41.654;-8.438;2023-07-29T06:32:56;0.30;;;0.30;;
60885;SDS011;46736;41.654;-8.438;2023-07-29T06:34:56;0.30;;;0.30;;
60885;SDS011;46736;41.654;-8.438;2023-07-29T06:36:57;0.20;;;0.20;;
60885;SDS011;46736;41.654;-8.438;2023-07-29T06:38:57;0.30;;;0.30;;
60885;SDS011;46736;41.654;-8.438;2023-07-29T06:40:58;0.30;;;0.30;;
60885;SDS011;46736;41.654;-8.438;2023-07-29T06:42:58;0.30;;;0.30;;
60885;SDS011;46736;41.654;-8.438;2023-07-29T06:44:59;0.30;;;0.30;;
60885;SDS011;46736;41.654;-8.438;2023-07-29T06:47:00;0.30;;;0.30;;
60885;SDS011;46736;41.654;-8.438;2023-07-29T06:49:00;0.20;;;0.20;;
60885;SDS011;46736;41.654;-8.438;2023-07-29T06:51:01;0.30;;;0.30;;
60885;SDS011;46736;41.654;-8.438;2023-07-29T06:53:02;0.30;;;0.30;;
60885;SDS011;46736;41.654;-8.438;2023-07-29T06:55:03;0.30;;;0.30;;
60885;SDS011;46736;41.654;-8.438;2023-07-29T06:57:04;0.30;;;0.30;;
60885;SDS011;46736;41.654;-8.438;2023-07-29T06:59:05;0.30;;;0.30;;
60885;SDS011;46736;41.654;-8.438;2023-07-29T07:01:05;0.30;;;0.30;;
60885;SDS011;46736;41.654;-8.438;2023-07-29T07:03:06;0.30;;;0.30;;
60885;SDS011;46736;41.654;-8.438;2023-07-29T07:05:06;0.30;;;0.30;;
60885;SDS011;46736;41.654;-8.438;2023-07-29T07:07:07;0.30;;;0.30;;
60885;SDS011;46736;41.654;-8.438;2023-07-29T07:09:07;0.20;;;0.20;;
60885;SDS011;46736;41.654;-8.438;2023-07-29T07:11:08;0.20;;;0.20;;
60885;SDS011;46736;41.654;-8.438;2023-07-29T07:13:09;0.30;;;0.30;;
60885;SDS011;46736;41.654;-8.438;2023-07-29T07:15:09;0.30;;;0.30;;
60885;SDS011;46736;41.654;-8.438;2023-07-29T07:17:10;0.20;;;0.20;;
60885;SDS011;46736;41.654;-8.438;2023-07-29T07:19:10;0.30;;;0.30;;
60885;SDS011;46736;41.654;-8.438;2023-07-29T07:21:11;0.28;;;0.28;;
60885;SDS011;46736;41.654;-8.438;2023-07-29T07:23:12;0.30;;;0.30;;
60885;SDS011;46736;41.654;-8.438;2023-07-29T07:25:13;0.30;;;0.30;;
60885;SDS011;46736;41.654;-8.438;2023-07-29T07:27:14;0.30;;;0.30;;
60885;SDS011;46736;41.654;-8.438;2023-07-29T07:29:14;0.20;;;0.20;;
60885;SDS011;46736;41.654;-8.438;2023-07-29T07:31:15;0.20;;;0.20;;
60885;SDS011;46736;41.654;-8.438;2023-07-29T07:33:16;0.20;;;0.20;;
60885;SDS011;46736;41.654;-8.438;2023-07-29T07:35:17;0.30;;;0.30;;
60885;SDS011;46736;41.654;-8.438;2023-07-29T07:37:17;0.30;;;0.30;;
60885;SDS011;46736;41.654;-8.438;2023-07-29T07:39:18;0.30;;;0.30;;
60885;SDS011;46736;41.654;-8.438;2023-07-29T07:41:18;0.20;;;0.20;;
60885;SDS011;46736;41.654;-8.438;2023-07-29T07:43:19;0.20;;;0.20;;
60885;SDS011;46736;41.654;-8.438;2023-07-29T07:45:19;0.30;;;0.30;;
60885;SDS011;46736;41.654;-8.438;2023-07-29T07:47:20;0.30;;;0.30;;
60885;SDS011;46736;41.654;-8.438;2023-07-29T07:49:22;0.30;;;0.30;;
60885;SDS011;46736;41.654;-8.438;2023-07-29T07:51:22;0.20;;;0.20;;
60885;SDS011;46736;41.654;-8.438;2023-07-29T07:53:23;0.30;;;0.30;;
60885;SDS011;46736;41.654;-8.438;2023-07-29T07:55:25;0.22;;;0.22;;
60885;SDS011;46736;41.654;-8.438;2023-07-29T07:57:26;0.20;;;0.20;;
60885;SDS011;46736;41.654;-8.438;2023-07-29T07:59:26;0.20;;;0.20;;
60885;SDS011;46736;41.654;-8.438;2023-07-29T08:01:27;0.22;;;0.22;;
60885;SDS011;46736;41.654;-8.438;2023-07-29T08:03:27;0.20;;;0.20;;
60885;SDS011;46736;41.654;-8.438;2023-07-29T08:05:28;0.20;;;0.20;;
60885;SDS011;46736;41.654;-8.438;2023-07-29T08:07:28;0.20;;;0.20;;
60885;SDS011;46736;41.654;-8.438;2023-07-29T08:09:29;0.20;;;0.20;;
60885;SDS011;46736;41.654;-8.438;2023-07-29T08:11:29;0.20;;;0.20;;
60885;SDS011;46736;41.654;-8.438;2023-07-29T08:13:30;0.20;;;0.20;;
60885;SDS011;46736;41.654;-8.438;2023-07-29T08:15:30;0.20;;;0.20;;
60885;SDS011;46736;41.654;-8.438;2023-07-29T08:17:31;0.20;;;0.20;;
60885;SDS011;46736;41.654;-8.438;2023-07-29T08:19:31;0.20;;;0.20;;
60885;SDS011;46736;41.654;-8.438;2023-07-29T08:21:32;0.20;;;0.20;;
60885;SDS011;46736;41.654;-8.438;2023-07-29T08:23:33;0.10;;;0.10;;
60885;SDS011;46736;41.654;-8.438;2023-07-29T08:25:34;0.10;;;0.10;;
60885;SDS011;46736;41.654;-8.438;2023-07-29T08:27:35;0.10;;;0.10;;
60885;SDS011;46736;41.654;-8.438;2023-07-29T08:29:35;0.10;;;0.10;;
60885;SDS011;46736;41.654;-8.438;2023-07-29T08:31:36;0.10;;;0.10;;
60885;SDS011;46736;41.654;-8.438;2023-07-29T08:33:37;0.10;;;0.10;;
60885;SDS011;46736;41.654;-8.438;2023-07-29T08:35:37;0.10;;;0.10;;
60885;SDS011;46736;41.654;-8.438;2023-07-29T08:37:38;0.20;;;0.20;;
60885;SDS011;46736;41.654;-8.438;2023-07-29T08:39:38;0.20;;;0.20;;
60885;SDS011;46736;41.654;-8.438;2023-07-29T08:43:43;0.20;;;0.20;;
60885;SDS011;46736;41.654;-8.438;2023-07-29T08:45:44;0.20;;;0.20;;
60885;SDS011;46736;41.654;-8.438;2023-07-29T08:47:45;0.13;;;0.13;;
60885;SDS011;46736;41.654;-8.438;2023-07-29T08:49:46;0.20;;;0.20;;
60885;SDS011;46736;41.654;-8.438;2023-07-29T08:51:47;0.20;;;0.20;;
60885;SDS011;46736;41.654;-8.438;2023-07-29T08:53:48;0.20;;;0.20;;
60885;SDS011;46736;41.654;-8.438;2023-07-29T08:55:49;0.20;;;0.20;;
60885;SDS011;46736;41.654;-8.438;2023-07-29T08:57:50;0.20;;;0.20;;
60885;SDS011;46736;41.654;-8.438;2023-07-29T08:59:51;0.20;;;0.20;;
60885;SDS011;46736;41.654;-8.438;2023-07-29T09:01:52;0.20;;;0.20;;
60885;SDS011;46736;41.654;-8.438;2023-07-29T09:03:55;0.20;;;0.20;;
60885;SDS011;46736;41.654;-8.438;2023-07-29T09:05:56;0.20;;;0.20;;
60885;SDS011;46736;41.654;-8.438;2023-07-29T09:07:57;0.20;;;0.20;;
60885;SDS011;46736;41.654;-8.438;2023-07-29T09:09:58;0.20;;;0.20;;
60885;SDS011;46736;41.654;-8.438;2023-07-29T09:11:58;0.20;;;0.20;;
60885;SDS011;46736;41.654;-8.438;2023-07-29T09:13:59;0.20;;;0.20;;
60885;SDS011;46736;41.654;-8.438;2023-07-29T09:15:59;0.20;;;0.20;;
60885;SDS011;46736;41.654;-8.438;2023-07-29T09:18:08;0.20;;;0.20;;
60885;SDS011;46736;41.654;-8.438;2023-07-29T09:20:09;0.20;;;0.20;;
60885;SDS011;46736;41.654;-8.438;2023-07-29T09:22:17;0.20;;;0.20;;
60885;SDS011;46736;41.654;-8.438;2023-07-29T09:24:17;0.17;;;0.17;;
60885;SDS011;46736;41.654;-8.438;2023-07-29T09:26:27;0.20;;;0.20;;
60885;SDS011;46736;41.654;-8.438;2023-07-29T09:28:28;0.20;;;0.20;;
60885;SDS011;46736;41.654;-8.438;2023-07-29T09:30:32;0.20;;;0.20;;
60885;SDS011;46736;41.654;-8.438;2023-07-29T09:32:32;0.20;;;0.20;;
60885;SDS011;46736;41.654;-8.438;2023-07-29T09:34:33;0.20;;;0.20;;
60885;SDS011;46736;41.654;-8.438;2023-07-29T09:36:41;0.20;;;0.20;;
60885;SDS011;46736;41.654;-8.438;2023-07-29T09:38:42;0.20;;;0.20;;
60885;SDS011;46736;41.654;-8.438;2023-07-29T09:40:43;0.20;;;0.20;;
60885;SDS011;46736;41.654;-8.438;2023-07-29T09:42:48;0.20;;;0.20;;
60885;SDS011;46736;41.654;-8.438;2023-07-29T09:46:50;0.20;;;0.20;;
60885;SDS011;46736;41.654;-8.438;2023-07-29T09:48:52;0.20;;;0.20;;
60885;SDS011;46736;41.654;-8.438;2023-07-29T09:50:53;0.20;;;0.20;;
60885;SDS011;46736;41.654;-8.438;2023-07-29T09:52:54;0.20;;;0.20;;
60885;SDS011;46736;41.654;-8.438;2023-07-29T09:54:55;0.20;;;0.20;;
60885;SDS011;46736;41.654;-8.438;2023-07-29T09:56:56;0.20;;;0.20;;
60885;SDS011;46736;41.654;-8.438;2023-07-29T09:58:56;0.20;;;0.20;;
60885;SDS011;46736;41.654;-8.438;2023-07-29T10:00:57;0.20;;;0.20;;
60885;SDS011;46736;41.654;-8.438;2023-07-29T10:02:58;0.20;;;0.20;;
60885;SDS011;46736;41.654;-8.438;2023-07-29T10:04:59;0.20;;;0.20;;
60885;SDS011;46736;41.654;-8.438;2023-07-29T10:06:59;0.10;;;0.10;;
60885;SDS011;46736;41.654;-8.438;2023-07-29T10:09:00;0.20;;;0.20;;
60885;SDS011;46736;41.654;-8.438;2023-07-29T10:11:01;0.10;;;0.10;;
60885;SDS011;46736;41.654;-8.438;2023-07-29T10:13:01;0.00;;;0.00;;
60885;SDS011;46736;41.654;-8.438;2023-07-29T10:15:03;0.03;;;0.03;;
60885;SDS011;46736;41.654;-8.438;2023-07-29T10:17:05;0.00;;;0.00;;
60885;SDS011;46736;41.654;-8.438;2023-07-29T10:19:06;0.00;;;0.00;;
60885;SDS011;46736;41.654;-8.438;2023-07-29T10:21:07;0.00;;;0.00;;
60885;SDS011;46736;41.654;-8.438;2023-07-29T10:23:08;0.00;;;0.00;;
60885;SDS011;46736;41.654;-8.438;2023-07-29T10:25:17;0.00;;;0.00;;
60885;SDS011;46736;41.654;-8.438;2023-07-29T10:27:18;0.00;;;0.00;;
60885;SDS011;46736;41.654;-8.438;2023-07-29T10:29:19;0.00;;;0.00;;
60885;SDS011;46736;41.654;-8.438;2023-07-29T10:31:21;0.10;;;0.10;;
60885;SDS011;46736;41.654;-8.438;2023-07-29T10:33:22;0.10;;;0.10;;
60885;SDS011;46736;41.654;-8.438;2023-07-29T10:35:26;0.00;;;0.00;;
60885;SDS011;46736;41.654;-8.438;2023-07-29T10:37:30;0.10;;;0.10;;
60885;SDS011;46736;41.654;-8.438;2023-07-29T10:41:56;0.10;;;0.10;;
60885;SDS011;46736;41.654;-8.438;2023-07-29T10:43:57;0.10;;;0.10;;
60885;SDS011;46736;41.654;-8.438;2023-07-29T10:45:58;0.10;;;0.10;;
60885;SDS011;46736;41.654;-8.438;2023-07-29T10:48:41;0.20;;;0.20;;
60885;SDS011;46736;41.654;-8.438;2023-07-29T10:50:36;0.20;;;0.20;;
60885;SDS011;46736;41.654;-8.438;2023-07-29T10:52:40;0.20;;;0.20;;
60885;SDS011;46736;41.654;-8.438;2023-07-29T10:54:41;0.20;;;0.20;;
60885;SDS011;46736;41.654;-8.438;2023-07-29T10:56:43;0.20;;;0.20;;
60885;SDS011;46736;41.654;-8.438;2023-07-29T10:58:46;0.20;;;0.20;;
60885;SDS011;46736;41.654;-8.438;2023-07-29T11:00:47;0.20;;;0.20;;
60885;SDS011;46736;41.654;-8.438;2023-07-29T11:02:59;0.20;;;0.20;;
60885;SDS011;46736;41.654;-8.438;2023-07-29T11:05:06;0.20;;;0.20;;
60885;SDS011;46736;41.654;-8.438;2023-07-29T11:09:38;0.13;;;0.13;;
60885;SDS011;46736;41.654;-8.438;2023-07-29T11:11:29;0.20;;;0.20;;
60885;SDS011;46736;41.654;-8.438;2023-07-29T11:13:30;0.20;;;0.20;;
60885;SDS011;46736;41.654;-8.438;2023-07-29T11:15:31;0.20;;;0.20;;
60885;SDS011;46736;41.654;-8.438;2023-07-29T11:17:33;0.13;;;0.13;;
60885;SDS011;46736;41.654;-8.438;2023-07-29T11:19:35;0.10;;;0.10;;
60885;SDS011;46736;41.654;-8.438;2023-07-29T11:21:36;0.10;;;0.10;;
60885;SDS011;46736;41.654;-8.438;2023-07-29T11:23:36;0.10;;;0.10;;
60885;SDS011;46736;41.654;-8.438;2023-07-29T11:25:37;0.10;;;0.10;;
60885;SDS011;46736;41.654;-8.438;2023-07-29T11:27:38;0.10;;;0.10;;
60885;SDS011;46736;41.654;-8.438;2023-07-29T11:29:39;0.10;;;0.10;;
60885;SDS011;46736;41.654;-8.438;2023-07-29T11:31:39;0.00;;;0.00;;
60885;SDS011;46736;41.654;-8.438;2023-07-29T11:33:40;0.00;;;0.00;;
60885;SDS011;46736;41.654;-8.438;2023-07-29T11:35:40;0.00;;;0.00;;
60885;SDS011;46736;41.654;-8.438;2023-07-29T11:37:42;0.00;;;0.00;;
60885;SDS011;46736;41.654;-8.438;2023-07-29T11:39:43;0.00;;;0.00;;
60885;SDS011;46736;41.654;-8.438;2023-07-29T11:41:47;0.00;;;0.00;;
60885;SDS011;46736;41.654;-8.438;2023-07-29T11:43:47;0.00;;;0.00;;
60885;SDS011;46736;41.654;-8.438;2023-07-29T11:45:48;0.00;;;0.00;;
60885;SDS011;46736;41.654;-8.438;2023-07-29T11:47:48;0.00;;;0.00;;
60885;SDS011;46736;41.654;-8.438;2023-07-29T11:49:49;0.00;;;0.00;;
60885;SDS011;46736;41.654;-8.438;2023-07-29T11:51:49;0.00;;;0.00;;
60885;SDS011;46736;41.654;-8.438;2023-07-29T11:53:50;0.00;;;0.00;;
60885;SDS011;46736;41.654;-8.438;2023-07-29T11:55:51;0.00;;;0.00;;
60885;SDS011;46736;41.654;-8.438;2023-07-29T11:57:53;0.10;;;0.10;;
60885;SDS011;46736;41.654;-8.438;2023-07-29T11:59:53;0.00;;;0.00;;
60885;SDS011;46736;41.654;-8.438;2023-07-29T12:01:54;0.00;;;0.00;;
60885;SDS011;46736;41.654;-8.438;2023-07-29T12:03:55;0.10;;;0.10;;
60885;SDS011;46736;41.654;-8.438;2023-07-29T12:05:56;0.00;;;0.00;;
60885;SDS011;46736;41.654;-8.438;2023-07-29T12:07:56;0.10;;;0.10;;
60885;SDS011;46736;41.654;-8.438;2023-07-29T12:09:57;0.00;;;0.00;;
60885;SDS011;46736;41.654;-8.438;2023-07-29T12:11:58;0.05;;;0.05;;
60885;SDS011;46736;41.654;-8.438;2023-07-29T12:13:59;0.03;;;0.03;;
60885;SDS011;46736;41.654;-8.438;2023-07-29T12:16:01;0.10;;;0.10;;